sensor_id;sensor_type;location;lat;lon;timestamp;pressure;altitude;pressure_sealevel;temperature;humidity
62697;BME280;48761;42.680;23.312;2023-01-27T00:00:21;94004.28;;;0.18;91.79
62697;BME280;48761;42.680;23.312;2023-01-27T00:02:48;93998.28;;;0.16;91.58
62697;BME280;48761;42.680;23.312;2023-01-27T00:05:15;93974.38;;;0.04;91.31
62697;BME280;48761;42.680;23.312;2023-01-27T00:07:42;94014.28;;;0.29;91.36
62697;BME280;48761;42.680;23.312;2023-01-27T00:10:09;93982.09;;;0.07;91.09
62697;BME280;48761;42.680;23.312;2023-01-27T00:12:35;94001.81;;;0.15;91.01
62697;BME280;48761;42.680;23.312;2023-01-27T00:15:01;94004.75;;;0.07;91.20
62697;BME280;48761;42.680;23.312;2023-01-27T00:17:28;93984.81;;;0.04;91.29
62697;BME280;48761;42.680;23.312;2023-01-27T00:19:54;94005.59;;;0.28;91.26
62697;BME280;48761;42.680;23.312;2023-01-27T00:22:19;93964.56;;;-0.12;91.31
62697;BME280;48761;42.680;23.312;2023-01-27T00:24:45;93959.00;;;-0.25;91.59
62697;BME280;48761;42.680;23.312;2023-01-27T00:27:11;93962.16;;;-0.16;92.17
62697;BME280;48761;42.680;23.312;2023-01-27T00:29:38;93970.13;;;0.02;91.72
62697;BME280;48761;42.680;23.312;2023-01-27T00:32:04;93970.56;;;-0.09;91.79
62697;BME280;48761;42.680;23.312;2023-01-27T00:34:30;93969.22;;;-0.18;92.23
62697;BME280;48761;42.680;23.312;2023-01-27T00:36:56;93977.44;;;-0.07;92.24
62697;BME280;48761;42.680;23.312;2023-01-27T00:39:22;93988.88;;;0.12;92.11
62697;BME280;48761;42.680;23.312;2023-01-27T00:41:48;93974.72;;;0.37;91.61
62697;BME280;48761;42.680;23.312;2023-01-27T00:44:14;93968.38;;;0.42;90.90
62697;BME280;48761;42.680;23.312;2023-01-27T00:46:41;93965.69;;;0.44;90.39
62697;BME280;48761;42.680;23.312;2023-01-27T00:49:07;93985.72;;;0.45;90.46
62697;BME280;48761;42.680;23.312;2023-01-27T00:51:33;93976.28;;;0.41;90.37
62697;BME280;48761;42.680;23.312;2023-01-27T00:53:59;93986.28;;;0.71;89.67
62697;BME280;48761;42.680;23.312;2023-01-27T00:56:25;93982.38;;;0.61;89.41
62697;BME280;48761;42.680;23.312;2023-01-27T00:58:52;93981.13;;;0.50;88.97
62697;BME280;48761;42.680;23.312;2023-01-27T01:01:18;93982.47;;;0.19;90.55
62697;BME280;48761;42.680;23.312;2023-01-27T01:03:43;93978.34;;;0.13;90.93
62697;BME280;48761;42.680;23.312;2023-01-27T01:06:11;93960.25;;;-0.13;91.24
62697;BME280;48761;42.680;23.312;2023-01-27T01:08:39;93972.06;;;-0.04;91.21
62697;BME280;48761;42.680;23.312;2023-01-27T01:11:07;93976.19;;;-0.19;91.78
62697;BME280;48761;42.680;23.312;2023-01-27T01:13:33;93970.31;;;-0.24;92.20
62697;BME280;48761;42.680;23.312;2023-01-27T01:16:11;93981.03;;;-0.30;92.44
62697;BME280;48761;42.680;23.312;2023-01-27T01:18:38;93980.63;;;-0.21;92.75
62697;BME280;48761;42.680;23.312;2023-01-27T01:21:04;93982.41;;;-0.01;92.45
62697;BME280;48761;42.680;23.312;2023-01-27T01:23:30;93950.78;;;-0.36;92.64
62697;BME280;48761;42.680;23.312;2023-01-27T01:25:57;93980.50;;;-0.18;92.54
62697;BME280;48761;42.680;23.312;2023-01-27T01:28:23;93976.06;;;-0.16;92.53
62697;BME280;48761;42.680;23.312;2023-01-27T01:30:49;93968.47;;;-0.22;92.86
62697;BME280;48761;42.680;23.312;2023-01-27T01:33:15;93978.81;;;-0.19;92.84
62697;BME280;48761;42.680;23.312;2023-01-27T01:35:41;93980.13;;;-0.08;92.71
62697;BME280;48761;42.680;23.312;2023-01-27T01:38:08;93952.28;;;-0.09;92.52
62697;BME280;48761;42.680;23.312;2023-01-27T01:40:39;93950.66;;;0.09;92.01
62697;BME280;48761;42.680;23.312;2023-01-27T01:43:11;93984.47;;;0.33;91.16
62697;BME280;48761;42.680;23.312;2023-01-27T01:45:50;93998.91;;;0.42;90.73
62697;BME280;48761;42.680;23.312;2023-01-27T01:50:54;93954.59;;;0.18;91.00
62697;BME280;48761;42.680;23.312;2023-01-27T01:53:22;93983.47;;;0.36;91.18
62697;BME280;48761;42.680;23.312;2023-01-27T01:55:49;93984.47;;;0.33;91.12
62697;BME280;48761;42.680;23.312;2023-01-27T01:58:15;93973.81;;;0.38;91.31
62697;BME280;48761;42.680;23.312;2023-01-27T02:00:41;93974.81;;;0.54;91.16
62697;BME280;48761;42.680;23.312;2023-01-27T02:03:08;93966.53;;;0.44;90.82
62697;BME280;48761;42.680;23.312;2023-01-27T02:05:36;93961.31;;;0.44;90.04
62697;BME280;48761;42.680;23.312;2023-01-27T02:10:31;93947.59;;;0.59;89.11
62697;BME280;48761;42.680;23.312;2023-01-27T02:12:58;93941.25;;;0.45;89.03
62697;BME280;48761;42.680;23.312;2023-01-27T02:15:24;93939.28;;;0.50;88.89
62697;BME280;48761;42.680;23.312;2023-01-27T02:17:50;93928.66;;;0.53;89.21
62697;BME280;48761;42.680;23.312;2023-01-27T02:27:59;93874.94;;;0.46;88.30
62697;BME280;48761;42.680;23.312;2023-01-27T02:30:25;93886.53;;;0.60;88.11
62697;BME280;48761;42.680;23.312;2023-01-27T02:32:51;93917.22;;;0.75;87.76
62697;BME280;48761;42.680;23.312;2023-01-27T02:35:27;93874.66;;;0.52;87.71
62697;BME280;48761;42.680;23.312;2023-01-27T02:37:55;93919.19;;;0.70;88.09
62697;BME280;48761;42.680;23.312;2023-01-27T02:40:22;93895.06;;;0.63;87.34
62697;BME280;48761;42.680;23.312;2023-01-27T02:42:49;93849.28;;;0.35;87.35
62697;BME280;48761;42.680;23.312;2023-01-27T02:45:18;93874.09;;;0.26;87.39
62697;BME280;48761;42.680;23.312;2023-01-27T02:47:44;93919.91;;;0.54;88.14
62697;BME280;48761;42.680;23.312;2023-01-27T02:50:10;93894.59;;;0.55;87.55
62697;BME280;48761;42.680;23.312;2023-01-27T02:52:36;93903.69;;;0.46;87.38
62697;BME280;48761;42.680;23.312;2023-01-27T02:55:02;93940.13;;;0.70;87.64
62697;BME280;48761;42.680;23.312;2023-01-27T02:57:28;93937.66;;;0.67;88.23
62697;BME280;48761;42.680;23.312;2023-01-27T02:59:54;93937.50;;;0.70;87.91
62697;BME280;48761;42.680;23.312;2023-01-27T03:02:20;93915.81;;;0.68;87.75
62697;BME280;48761;42.680;23.312;2023-01-27T03:04:46;93886.88;;;0.52;88.01
62697;BME280;48761;42.680;23.312;2023-01-27T03:07:12;93893.59;;;0.58;86.97
62697;BME280;48761;42.680;23.312;2023-01-27T03:09:38;93920.09;;;0.69;87.43
62697;BME280;48761;42.680;23.312;2023-01-27T03:12:04;93910.75;;;0.63;87.41
62697;BME280;48761;42.680;23.312;2023-01-27T03:14:30;93913.25;;;0.66;87.91
62697;BME280;48761;42.680;23.312;2023-01-27T03:16:56;93877.16;;;0.55;87.98
62697;BME280;48761;42.680;23.312;2023-01-27T03:19:22;93893.59;;;0.58;87.96
62697;BME280;48761;42.680;23.312;2023-01-27T03:21:48;93902.50;;;0.53;88.29
62697;BME280;48761;42.680;23.312;2023-01-27T03:24:14;93876.34;;;0.53;88.86
62697;BME280;48761;42.680;23.312;2023-01-27T03:26:40;93890.41;;;0.70;88.46
62697;BME280;48761;42.680;23.312;2023-01-27T03:29:06;93893.03;;;0.70;88.57
62697;BME280;48761;42.680;23.312;2023-01-27T03:31:31;93885.41;;;0.46;88.67
62697;BME280;48761;42.680;23.312;2023-01-27T03:33:57;93879.25;;;0.47;89.20
62697;BME280;48761;42.680;23.312;2023-01-27T03:36:23;93879.03;;;0.52;89.26
62697;BME280;48761;42.680;23.312;2023-01-27T03:38:49;93880.59;;;0.56;89.12
62697;BME280;48761;42.680;23.312;2023-01-27T03:41:15;93880.75;;;0.53;88.92
62697;BME280;48761;42.680;23.312;2023-01-27T03:43:41;93858.38;;;0.46;89.26
62697;BME280;48761;42.680;23.312;2023-01-27T03:46:07;93815.28;;;0.16;89.75
62697;BME280;48761;42.680;23.312;2023-01-27T03:48:33;93828.09;;;0.22;89.67
62697;BME280;48761;42.680;23.312;2023-01-27T03:51:04;93853.16;;;0.46;90.22
62697;BME280;48761;42.680;23.312;2023-01-27T03:53:30;93838.56;;;0.22;90.21
62697;BME280;48761;42.680;23.312;2023-01-27T03:55:56;93859.41;;;0.43;90.33
62697;BME280;48761;42.680;23.312;2023-01-27T03:58:25;93842.22;;;0.37;89.92
62697;BME280;48761;42.680;23.312;2023-01-27T04:00:54;93855.84;;;0.44;89.89
62697;BME280;48761;42.680;23.312;2023-01-27T04:03:22;93850.22;;;0.15;90.70
62697;BME280;48761;42.680;23.312;2023-01-27T04:05:48;93870.25;;;0.33;90.83
62697;BME280;48761;42.680;23.312;2023-01-27T04:08:14;93866.88;;;0.31;90.60
62697;BME280;48761;42.680;23.312;2023-01-27T04:10:40;93883.72;;;0.45;90.39
62697;BME280;48761;42.680;23.312;2023-01-27T04:13:06;93897.56;;;0.47;89.76
62697;BME280;48761;42.680;23.312;2023-01-27T04:15:32;93922.09;;;0.64;89.74
62697;BME280;48761;42.680;23.312;2023-01-27T04:17:58;93918.00;;;0.58;89.81
62697;BME280;48761;42.680;23.312;2023-01-27T04:20:24;93926.97;;;0.52;89.02
62697;BME280;48761;42.680;23.312;2023-01-27T04:22:50;93935.91;;;0.27;89.52
62697;BME280;48761;42.680;23.312;2023-01-27T04:25:16;93896.75;;;0.06;90.31
62697;BME280;48761;42.680;23.312;2023-01-27T04:27:42;93885.94;;;-0.05;90.55
62697;BME280;48761;42.680;23.312;2023-01-27T04:30:08;93927.53;;;0.40;90.20
62697;BME280;48761;42.680;23.312;2023-01-27T04:32:34;93932.47;;;0.46;89.61
62697;BME280;48761;42.680;23.312;2023-01-27T04:35:00;93940.81;;;0.54;88.57
62697;BME280;48761;42.680;23.312;2023-01-27T04:37:26;93938.06;;;0.58;88.40
62697;BME280;48761;42.680;23.312;2023-01-27T04:39:52;93931.22;;;0.55;88.39
62697;BME280;48761;42.680;23.312;2023-01-27T04:42:18;93945.06;;;0.57;88.70
62697;BME280;48761;42.680;23.312;2023-01-27T04:44:44;93934.59;;;0.38;89.16
62697;BME280;48761;42.680;23.312;2023-01-27T04:47:10;93940.66;;;0.38;89.39
62697;BME280;48761;42.680;23.312;2023-01-27T04:49:36;93918.31;;;0.31;89.21
62697;BME280;48761;42.680;23.312;2023-01-27T04:52:02;93919.59;;;0.22;89.98
62697;BME280;48761;42.680;23.312;2023-01-27T04:54:27;93941.69;;;0.15;89.95
62697;BME280;48761;42.680;23.312;2023-01-27T04:56:59;93931.25;;;0.15;89.85
62697;BME280;48761;42.680;23.312;2023-01-27T04:59:35;93905.09;;;0.15;89.92
62697;BME280;48761;42.680;23.312;2023-01-27T05:02:01;93952.06;;;0.57;89.53
62697;BME280;48761;42.680;23.312;2023-01-27T05:04:27;93912.97;;;0.34;89.29
62697;BME280;48761;42.680;23.312;2023-01-27T05:06:54;93944.78;;;0.63;88.79
62697;BME280;48761;42.680;23.312;2023-01-27T05:09:20;93924.06;;;0.59;89.03
62697;BME280;48761;42.680;23.312;2023-01-27T05:11:46;93948.94;;;0.48;89.35
62697;BME280;48761;42.680;23.312;2023-01-27T05:14:11;93938.06;;;0.58;88.83
62697;BME280;48761;42.680;23.312;2023-01-27T05:16:41;93933.84;;;0.55;89.49
62697;BME280;48761;42.680;23.312;2023-01-27T05:19:07;93928.09;;;0.47;89.99
62697;BME280;48761;42.680;23.312;2023-01-27T05:21:33;93932.53;;;0.44;89.92
62697;BME280;48761;42.680;23.312;2023-01-27T05:24:00;93935.47;;;0.58;90.21
62697;BME280;48761;42.680;23.312;2023-01-27T05:26:27;93925.56;;;0.45;90.45
62697;BME280;48761;42.680;23.312;2023-01-27T05:28:55;93942.06;;;0.46;90.42
62697;BME280;48761;42.680;23.312;2023-01-27T05:31:27;93920.31;;;0.45;90.24
62697;BME280;48761;42.680;23.312;2023-01-27T05:33:55;93929.94;;;0.64;89.87
62697;BME280;48761;42.680;23.312;2023-01-27T05:36:22;93917.75;;;0.43;90.66
62697;BME280;48761;42.680;23.312;2023-01-27T05:38:49;93902.38;;;0.37;90.78
62697;BME280;48761;42.680;23.312;2023-01-27T05:41:17;93867.19;;;0.25;90.15
62697;BME280;48761;42.680;23.312;2023-01-27T05:43:45;93900.53;;;0.59;90.12
62697;BME280;48761;42.680;23.312;2023-01-27T05:46:14;93890.81;;;0.61;89.67
62697;BME280;48761;42.680;23.312;2023-01-27T05:48:43;93886.25;;;0.47;89.98
62697;BME280;48761;42.680;23.312;2023-01-27T05:51:11;93877.91;;;0.38;90.10
62697;BME280;48761;42.680;23.312;2023-01-27T05:53:37;93914.38;;;0.61;90.65
62697;BME280;48761;42.680;23.312;2023-01-27T05:56:04;93870.25;;;0.33;89.66
62697;BME280;48761;42.680;23.312;2023-01-27T05:58:31;93918.00;;;0.58;90.17
62697;BME280;48761;42.680;23.312;2023-01-27T06:03:33;93938.28;;;0.72;89.76
62697;BME280;48761;42.680;23.312;2023-01-27T06:05:59;93946.66;;;0.81;89.50
62697;BME280;48761;42.680;23.312;2023-01-27T06:08:29;93929.50;;;0.54;89.41
62697;BME280;48761;42.680;23.312;2023-01-27T06:10:55;93904.97;;;0.37;89.36
62697;BME280;48761;42.680;23.312;2023-01-27T06:13:22;93916.94;;;0.43;89.66
62697;BME280;48761;42.680;23.312;2023-01-27T06:15:49;93932.06;;;0.55;89.34
62697;BME280;48761;42.680;23.312;2023-01-27T06:18:16;93932.91;;;0.75;88.87
62697;BME280;48761;42.680;23.312;2023-01-27T06:20:43;93900.16;;;0.66;88.33
62697;BME280;48761;42.680;23.312;2023-01-27T06:23:10;93934.41;;;0.62;88.08
62697;BME280;48761;42.680;23.312;2023-01-27T06:25:39;93943.00;;;0.64;87.88
62697;BME280;48761;42.680;23.312;2023-01-27T06:28:05;93943.78;;;0.66;87.93
62697;BME280;48761;42.680;23.312;2023-01-27T06:30:36;93949.88;;;0.47;88.99
62697;BME280;48761;42.680;23.312;2023-01-27T06:33:02;93939.41;;;0.47;87.88
62697;BME280;48761;42.680;23.312;2023-01-27T06:35:29;93933.25;;;0.48;88.10
62697;BME280;48761;42.680;23.312;2023-01-27T06:37:59;93935.84;;;0.48;87.49
62697;BME280;48761;42.680;23.312;2023-01-27T06:40:26;93927.78;;;0.33;87.85
62697;BME280;48761;42.680;23.312;2023-01-27T06:42:52;93942.94;;;0.46;87.55
62697;BME280;48761;42.680;23.312;2023-01-27T06:45:18;93940.47;;;0.43;87.22
62697;BME280;48761;42.680;23.312;2023-01-27T06:47:44;93948.44;;;0.40;88.18
62697;BME280;48761;42.680;23.312;2023-01-27T06:50:10;93947.25;;;0.47;88.28
62697;BME280;48761;42.680;23.312;2023-01-27T06:52:36;93930.75;;;0.26;88.16
62697;BME280;48761;42.680;23.312;2023-01-27T06:55:03;93962.09;;;0.47;88.37
62697;BME280;48761;42.680;23.312;2023-01-27T06:57:29;93960.00;;;0.55;88.67
62697;BME280;48761;42.680;23.312;2023-01-27T06:59:55;93949.41;;;0.58;88.00
62697;BME280;48761;42.680;23.312;2023-01-27T07:02:21;93939.97;;;0.54;87.87
62697;BME280;48761;42.680;23.312;2023-01-27T07:04:47;93963.28;;;0.59;87.68
62697;BME280;48761;42.680;23.312;2023-01-27T07:07:13;93955.19;;;0.65;87.97
62697;BME280;48761;42.680;23.312;2023-01-27T07:09:39;93971.75;;;0.65;88.06
62697;BME280;48761;42.680;23.312;2023-01-27T07:12:05;93967.41;;;0.84;87.87
62697;BME280;48761;42.680;23.312;2023-01-27T07:14:31;93973.84;;;0.76;87.98
62697;BME280;48761;42.680;23.312;2023-01-27T07:17:00;93950.88;;;0.83;87.07
62697;BME280;48761;42.680;23.312;2023-01-27T07:19:26;93967.16;;;0.90;87.31
62697;BME280;48761;42.680;23.312;2023-01-27T07:21:52;93935.59;;;0.54;85.75
62697;BME280;48761;42.680;23.312;2023-01-27T07:24:18;93951.28;;;0.74;86.61
62697;BME280;48761;42.680;23.312;2023-01-27T07:26:44;93952.66;;;0.83;86.72
62697;BME280;48761;42.680;23.312;2023-01-27T07:29:09;93950.03;;;0.83;86.41
62697;BME280;48761;42.680;23.312;2023-01-27T07:31:35;93951.22;;;0.75;86.91
62697;BME280;48761;42.680;23.312;2023-01-27T07:34:01;93960.63;;;0.80;86.76
62697;BME280;48761;42.680;23.312;2023-01-27T07:36:27;93955.53;;;0.76;86.88
62697;BME280;48761;42.680;23.312;2023-01-27T07:38:53;93966.00;;;0.76;87.36
62697;BME280;48761;42.680;23.312;2023-01-27T07:41:19;93949.53;;;0.74;87.57
62697;BME280;48761;42.680;23.312;2023-01-27T07:43:46;93946.66;;;0.81;87.28
62697;BME280;48761;42.680;23.312;2023-01-27T07:46:12;93974.34;;;1.04;87.00
62697;BME280;48761;42.680;23.312;2023-01-27T07:48:38;93937.00;;;0.81;86.37
62697;BME280;48761;42.680;23.312;2023-01-27T07:51:10;93900.69;;;0.55;84.78
62697;BME280;48761;42.680;23.312;2023-01-27T07:53:36;93956.66;;;0.51;85.18
62697;BME280;48761;42.680;23.312;2023-01-27T07:56:02;93962.03;;;0.87;85.21
62697;BME280;48761;42.680;23.312;2023-01-27T07:58:28;93931.75;;;0.81;85.40
62697;BME280;48761;42.680;23.312;2023-01-27T08:00:54;93974.75;;;1.14;84.61
62697;BME280;48761;42.680;23.312;2023-01-27T08:03:22;93977.09;;;1.20;84.20
62697;BME280;48761;42.680;23.312;2023-01-27T08:05:49;93969.53;;;1.14;83.67
62697;BME280;48761;42.680;23.312;2023-01-27T08:08:15;93942.88;;;1.06;83.50
62697;BME280;48761;42.680;23.312;2023-01-27T08:10:41;93973.75;;;1.36;83.56
62697;BME280;48761;42.680;23.312;2023-01-27T08:13:07;93964.44;;;1.11;83.47
62697;BME280;48761;42.680;23.312;2023-01-27T08:15:33;93952.72;;;1.00;83.41
62697;BME280;48761;42.680;23.312;2023-01-27T08:17:59;93960.38;;;0.86;85.14
62697;BME280;48761;42.680;23.312;2023-01-27T08:20:26;93969.25;;;0.82;84.19
62697;BME280;48761;42.680;23.312;2023-01-27T08:22:52;93951.66;;;0.85;83.95
62697;BME280;48761;42.680;23.312;2023-01-27T08:25:18;93930.00;;;0.82;84.04
62697;BME280;48761;42.680;23.312;2023-01-27T08:27:44;93965.28;;;0.92;84.06
62697;BME280;48761;42.680;23.312;2023-01-27T08:30:10;93970.59;;;1.10;83.77
62697;BME280;48761;42.680;23.312;2023-01-27T08:32:36;93973.75;;;1.17;83.26
62697;BME280;48761;42.680;23.312;2023-01-27T08:35:02;93935.59;;;0.74;82.98
62697;BME280;48761;42.680;23.312;2023-01-27T08:37:28;93972.06;;;0.96;83.58
62697;BME280;48761;42.680;23.312;2023-01-27T08:39:54;93982.50;;;0.98;83.48
62697;BME280;48761;42.680;23.312;2023-01-27T08:42:20;93972.13;;;1.14;83.29
62697;BME280;48761;42.680;23.312;2023-01-27T08:44:46;93960.03;;;1.11;83.01
62697;BME280;48761;42.680;23.312;2023-01-27T08:47:12;93987.56;;;1.20;81.63
62697;BME280;48761;42.680;23.312;2023-01-27T08:49:38;93951.78;;;0.82;82.68
62697;BME280;48761;42.680;23.312;2023-01-27T08:52:04;93908.44;;;0.38;83.06
62697;BME280;48761;42.680;23.312;2023-01-27T08:54:30;93962.47;;;0.77;82.68
62697;BME280;48761;42.680;23.312;2023-01-27T08:56:56;93981.22;;;0.68;82.72
62697;BME280;48761;42.680;23.312;2023-01-27T08:59:22;93986.59;;;0.65;82.85
62697;BME280;48761;42.680;23.312;2023-01-27T09:01:48;93969.69;;;0.72;82.48
62697;BME280;48761;42.680;23.312;2023-01-27T09:04:14;93976.53;;;0.94;82.65
62697;BME280;48761;42.680;23.312;2023-01-27T09:06:40;93942.38;;;0.59;82.64
62697;BME280;48761;42.680;23.312;2023-01-27T09:09:06;93982.00;;;0.70;83.21
62697;BME280;48761;42.680;23.312;2023-01-27T09:11:32;93978.59;;;0.68;83.00
62697;BME280;48761;42.680;23.312;2023-01-27T09:13:58;93971.09;;;0.99;83.43
62697;BME280;48761;42.680;23.312;2023-01-27T09:16:24;93968.84;;;1.10;82.48
62697;BME280;48761;42.680;23.312;2023-01-27T09:18:50;93973.00;;;1.15;82.81
62697;BME280;48761;42.680;23.312;2023-01-27T09:21:16;93989.06;;;1.26;82.22
62697;BME280;48761;42.680;23.312;2023-01-27T09:23:41;93962.59;;;1.13;81.96
62697;BME280;48761;42.680;23.312;2023-01-27T09:26:07;93963.28;;;1.17;82.22
62697;BME280;48761;42.680;23.312;2023-01-27T09:28:33;93929.44;;;0.94;82.17
62697;BME280;48761;42.680;23.312;2023-01-27T09:30:59;93962.03;;;1.26;82.56
62697;BME280;48761;42.680;23.312;2023-01-27T09:33:26;93937.50;;;0.89;82.31
62697;BME280;48761;42.680;23.312;2023-01-27T09:36:07;93901.47;;;0.58;82.63
62697;BME280;48761;42.680;23.312;2023-01-27T09:38:38;93930.56;;;0.69;83.33
62697;BME280;48761;42.680;23.312;2023-01-27T10:07:08;93904.22;;;0.54;85.97
62697;BME280;48761;42.680;23.312;2023-01-27T10:10:07;93919.84;;;0.75;86.26
62697;BME280;48761;42.680;23.312;2023-01-27T10:21:41;93921.09;;;0.86;85.49
62697;BME280;48761;42.680;23.312;2023-01-27T10:24:21;93913.09;;;0.89;85.26
62697;BME280;48761;42.680;23.312;2023-01-27T10:26:59;93910.38;;;0.73;84.71
62697;BME280;48761;42.680;23.312;2023-01-27T10:32:29;93913.25;;;0.86;85.22
62697;BME280;48761;42.680;23.312;2023-01-27T10:46:01;93912.88;;;1.13;84.78
62697;BME280;48761;42.680;23.312;2023-01-27T10:48:47;93891.28;;;1.08;84.50
62697;BME280;48761;42.680;23.312;2023-01-27T10:54:06;93856.56;;;0.67;84.00
62697;BME280;48761;42.680;23.312;2023-01-27T10:56:57;93903.59;;;1.06;84.27
62697;BME280;48761;42.680;23.312;2023-01-27T11:00:05;93890.75;;;1.01;84.18
62697;BME280;48761;42.680;23.312;2023-01-27T11:02:52;93906.84;;;1.11;84.18
62697;BME280;48761;42.680;23.312;2023-01-27T11:05:27;93860.91;;;0.86;83.89
62697;BME280;48761;42.680;23.312;2023-01-27T11:08:03;93853.84;;;0.88;83.39
62697;BME280;48761;42.680;23.312;2023-01-27T11:10:38;93838.22;;;0.67;82.56
62697;BME280;48761;42.680;23.312;2023-01-27T11:13:10;93844.97;;;0.73;82.82
62697;BME280;48761;42.680;23.312;2023-01-27T11:15:39;93845.81;;;0.73;83.43
62697;BME280;48761;42.680;23.312;2023-01-27T11:18:21;93902.03;;;1.02;82.72
62697;BME280;48761;42.680;23.312;2023-01-27T11:20:52;93817.69;;;0.40;83.03
62697;BME280;48761;42.680;23.312;2023-01-27T11:23:25;93834.09;;;0.63;83.93
62697;BME280;48761;42.680;23.312;2023-01-27T11:26:11;93894.53;;;1.13;83.70
62697;BME280;48761;42.680;23.312;2023-01-27T11:37:19;93878.16;;;0.90;82.91
62697;BME280;48761;42.680;23.312;2023-01-27T11:39:46;93855.50;;;0.89;83.24
62697;BME280;48761;42.680;23.312;2023-01-27T11:42:13;93885.91;;;1.11;83.48
62697;BME280;48761;42.680;23.312;2023-01-27T11:44:41;93879.09;;;1.07;82.80
62697;BME280;48761;42.680;23.312;2023-01-27T11:47:20;93882.09;;;0.99;82.57
62697;BME280;48761;42.680;23.312;2023-01-27T11:49:49;93880.41;;;0.78;82.50
62697;BME280;48761;42.680;23.312;2023-01-27T11:52:18;93869.19;;;0.76;83.00
62697;BME280;48761;42.680;23.312;2023-01-27T11:57:21;93870.41;;;0.88;83.17
62697;BME280;48761;42.680;23.312;2023-01-27T12:02:40;93867.88;;;0.68;83.24
62697;BME280;48761;42.680;23.312;2023-01-27T12:05:11;93838.69;;;0.58;83.86
62697;BME280;48761;42.680;23.312;2023-01-27T12:07:51;93870.31;;;0.90;84.13
62697;BME280;48761;42.680;23.312;2023-01-27T12:10:31;93873.63;;;0.94;82.85
62697;BME280;48761;42.680;23.312;2023-01-27T12:13:06;93832.69;;;0.55;83.44
62697;BME280;48761;42.680;23.312;2023-01-27T12:15:32;93855.41;;;0.53;83.91
62697;BME280;48761;42.680;23.312;2023-01-27T12:18:02;93835.06;;;0.60;83.53
62697;BME280;48761;42.680;23.312;2023-01-27T12:20:30;93876.75;;;0.83;83.74
62697;BME280;48761;42.680;23.312;2023-01-27T12:23:05;93879.00;;;0.91;83.28
62697;BME280;48761;42.680;23.312;2023-01-27T12:25:43;93882.81;;;1.03;83.51
62697;BME280;48761;42.680;23.312;2023-01-27T12:28:35;93883.22;;;0.75;83.78
62697;BME280;48761;42.680;23.312;2023-01-27T12:31:31;93857.19;;;0.72;83.49
62697;BME280;48761;42.680;23.312;2023-01-27T12:34:27;93846.72;;;0.72;83.04
62697;BME280;48761;42.680;23.312;2023-01-27T12:36:55;93876.03;;;0.98;83.56
62697;BME280;48761;42.680;23.312;2023-01-27T12:41:53;93837.97;;;0.73;83.69
62697;BME280;48761;42.680;23.312;2023-01-27T12:44:20;93843.78;;;0.78;84.02
62697;BME280;48761;42.680;23.312;2023-01-27T12:46:58;93844.44;;;1.02;84.10
62697;BME280;48761;42.680;23.312;2023-01-27T12:49:34;93870.50;;;1.05;83.34
62697;BME280;48761;42.680;23.312;2023-01-27T12:52:03;93880.72;;;1.09;83.35
62697;BME280;48761;42.680;23.312;2023-01-27T12:54:32;93874.13;;;1.20;83.06
62697;BME280;48761;42.680;23.312;2023-01-27T12:57:13;93877.13;;;1.12;83.96
62697;BME280;48761;42.680;23.312;2023-01-27T12:59:49;93871.59;;;1.18;82.71
62697;BME280;48761;42.680;23.312;2023-01-27T13:02:19;93808.72;;;0.83;82.69
62697;BME280;48761;42.680;23.312;2023-01-27T13:04:53;93836.28;;;0.90;83.00
62697;BME280;48761;42.680;23.312;2023-01-27T13:07:31;93805.41;;;0.97;82.95
62697;BME280;48761;42.680;23.312;2023-01-27T13:10:04;93869.44;;;1.44;82.70
62697;BME280;48761;42.680;23.312;2023-01-27T13:15:24;93808.41;;;0.89;83.32
62697;BME280;48761;42.680;23.312;2023-01-27T13:17:52;93868.13;;;1.36;83.67
62697;BME280;48761;42.680;23.312;2023-01-27T13:25:35;93876.25;;;1.49;84.35
62697;BME280;48761;42.680;23.312;2023-01-27T13:28:02;93873.75;;;1.45;84.35
62697;BME280;48761;42.680;23.312;2023-01-27T13:30:39;93844.09;;;1.27;83.69
62697;BME280;48761;42.680;23.312;2023-01-27T13:39:06;93843.69;;;0.99;84.24
62697;BME280;48761;42.680;23.312;2023-01-27T13:41:46;93868.81;;;1.39;84.62
62697;BME280;48761;42.680;23.312;2023-01-27T13:44:30;93875.53;;;1.27;84.90
62697;BME280;48761;42.680;23.312;2023-01-27T13:47:03;93876.22;;;1.31;84.54
62697;BME280;48761;42.680;23.312;2023-01-27T13:49:38;93872.28;;;1.22;84.36
62697;BME280;48761;42.680;23.312;2023-01-27T13:52:06;93874.44;;;1.14;84.77
62697;BME280;48761;42.680;23.312;2023-01-27T13:54:32;93865.09;;;1.08;84.24
62697;BME280;48761;42.680;23.312;2023-01-27T14:08:30;93892.03;;;0.92;84.56
62697;BME280;48761;42.680;23.312;2023-01-27T14:25:31;93888.03;;;1.03;84.33
62697;BME280;48761;42.680;23.312;2023-01-27T14:28:14;93876.66;;;1.04;83.93
62697;BME280;48761;42.680;23.312;2023-01-27T14:30:50;93902.75;;;1.05;83.32
62697;BME280;48761;42.680;23.312;2023-01-27T14:33:48;93918.06;;;2.04;94.21
62697;BME280;48761;42.680;23.312;2023-01-27T14:36:20;93922.78;;;1.43;87.77
62697;BME280;48761;42.680;23.312;2023-01-27T14:41:39;93913.31;;;1.21;83.64
62697;BME280;48761;42.680;23.312;2023-01-27T14:47:18;93919.00;;;1.12;83.46
62697;BME280;48761;42.680;23.312;2023-01-27T14:49:52;93922.56;;;1.11;83.10
62697;BME280;48761;42.680;23.312;2023-01-27T14:52:31;93907.84;;;0.89;83.67
62697;BME280;48761;42.680;23.312;2023-01-27T14:57:42;93934.34;;;0.83;83.73
62697;BME280;48761;42.680;23.312;2023-01-27T15:06:01;93939.91;;;0.94;85.59
62697;BME280;48761;42.680;23.312;2023-01-27T15:08:34;93934.59;;;0.76;83.79
62697;BME280;48761;42.680;23.312;2023-01-27T15:11:32;93935.28;;;0.61;83.92
62697;BME280;48761;42.680;23.312;2023-01-27T15:14:32;93944.16;;;0.58;84.75
62697;BME280;48761;42.680;23.312;2023-01-27T15:25:41;93914.25;;;0.64;84.09
62697;BME280;48761;42.680;23.312;2023-01-27T15:28:12;93930.63;;;0.48;83.93
62697;BME280;48761;42.680;23.312;2023-01-27T15:30:39;93951.72;;;0.64;84.32
62697;BME280;48761;42.680;23.312;2023-01-27T15:36:31;93961.13;;;0.69;84.04
62697;BME280;48761;42.680;23.312;2023-01-27T15:46:48;93934.31;;;0.44;84.54